Time;durP1;ratioP1;P1;durP2;ratioP2;P2;SDS_P1;SDS_P2;PMS_P1;PMS_P2;Temp;Humidity;BMP_temperature;BMP_pressure;BME280_temperature;BME280_humidity;BME280_pressure;Samples;Min_cycle;Max_cycle;Signal;HPM_P1;HPM_P2
2023/11/12 00:00:12;;;;;;;20.13;15.18;;;;;;;;;;5052286;28;20060;-61
2023/11/12 00:02:41;;;;;;;19.20;15.10;;;;;;;;;;5052404;28;20410;-61
2023/11/12 00:05:11;;;;;;;19.02;14.07;;;;;;;;;;5050980;28;20071;-60
2023/11/12 00:07:38;;;;;;;19.77;14.10;;;;;;;;;;5050775;28;20490;-61
2023/11/12 00:10:06;;;;;;;17.42;14.40;;;;;;;;;;5052081;28;20053;-61
2023/11/12 00:12:34;;;;;;;14.57;12.98;;;;;;;;;;5054606;28;20056;-61
2023/11/12 00:15:01;;;;;;;18.98;14.82;;;;;;;;;;5055406;28;20053;-61
2023/11/12 00:17:28;;;;;;;17.30;14.45;;;;;;;;;;5055904;28;20048;-61
2023/11/12 00:19:55;;;;;;;18.92;15.73;;;;;;;;;;5054639;28;20433;-61
2023/11/12 00:22:21;;;;;;;17.40;14.88;;;;;;;;;;5054784;28;20061;-61
2023/11/12 00:24:48;;;;;;;17.27;14.90;;;;;;;;;;5055847;28;20092;-61
2023/11/12 00:27:15;;;;;;;17.13;14.18;;;;;;;;;;5055612;28;20053;-61
2023/11/12 00:29:43;;;;;;;18.00;14.30;;;;;;;;;;5055882;28;20474;-61
2023/11/12 00:32:10;;;;;;;21.45;16.20;;;;;;;;;;5055725;28;20065;-61
2023/11/12 00:34:38;;;;;;;21.00;15.38;;;;;;;;;;5055306;28;20052;-61
2023/11/12 00:37:05;;;;;;;19.13;15.48;;;;;;;;;;5055154;28;20056;-61
2023/11/12 00:39:32;;;;;;;18.00;15.40;;;;;;;;;;5055644;28;20473;-60
2023/11/12 00:41:59;;;;;;;18.08;15.70;;;;;;;;;;5055146;28;20053;-61
2023/11/12 00:44:26;;;;;;;19.48;14.57;;;;;;;;;;5055310;28;20501;-61
2023/11/12 00:46:54;;;;;;;20.23;15.68;;;;;;;;;;5054961;28;20052;-61
2023/11/12 00:49:21;;;;;;;17.35;13.48;;;;;;;;;;5053984;28;20052;-61
2023/11/12 00:51:49;;;;;;;19.50;15.48;;;;;;;;;;5055096;28;20433;-60
2023/11/12 00:54:16;;;;;;;17.42;15.27;;;;;;;;;;5055243;28;20049;-60
2023/11/12 00:56:43;;;;;;;18.75;14.40;;;;;;;;;;5055038;28;20540;-61
2023/11/12 00:59:10;;;;;;;16.85;15.02;;;;;;;;;;5055192;28;20057;-61
2023/11/12 01:01:36;;;;;;;20.08;15.70;;;;;;;;;;5054876;28;20056;-60
2023/11/12 01:04:05;;;;;;;22.75;17.58;;;;;;;;;;5054735;28;20408;-61
2023/11/12 01:06:33;;;;;;;21.80;17.10;;;;;;;;;;5054861;28;20406;-61
2023/11/12 01:09:00;;;;;;;22.17;16.88;;;;;;;;;;5053625;28;20132;-60
2023/11/12 01:11:27;;;;;;;18.90;15.40;;;;;;;;;;5054751;28;20052;-61
2023/11/12 01:13:54;;;;;;;20.33;16.67;;;;;;;;;;5054247;28;20419;-62
2023/11/12 01:16:20;;;;;;;22.30;16.58;;;;;;;;;;5054291;28;20425;-62
2023/11/12 01:18:48;;;;;;;21.30;16.05;;;;;;;;;;5054040;28;20079;-61
2023/11/12 01:21:17;;;;;;;19.67;16.33;;;;;;;;;;5053568;28;20391;-61
2023/11/12 01:23:44;;;;;;;21.83;16.80;;;;;;;;;;5053264;28;20052;-60
2023/11/12 01:26:10;;;;;;;19.13;16.52;;;;;;;;;;5054143;28;20060;-60
2023/11/12 01:28:37;;;;;;;21.70;16.23;;;;;;;;;;5054377;28;20057;-60
2023/11/12 01:31:04;;;;;;;18.70;15.15;;;;;;;;;;5054197;28;20498;-60
2023/11/12 01:33:31;;;;;;;18.48;14.77;;;;;;;;;;5054202;28;20053;-60
2023/11/12 01:35:59;;;;;;;20.48;14.90;;;;;;;;;;5053305;28;20049;-60
2023/11/12 01:38:27;;;;;;;19.33;15.45;;;;;;;;;;5054518;28;20399;-60
2023/11/12 01:40:54;;;;;;;20.17;15.43;;;;;;;;;;5053854;28;20053;-61
2023/11/12 01:43:21;;;;;;;18.42;15.13;;;;;;;;;;5053812;28;20044;-60
2023/11/12 01:45:49;;;;;;;22.02;16.05;;;;;;;;;;5054514;28;20057;-61
2023/11/12 01:48:16;;;;;;;17.45;14.20;;;;;;;;;;5053697;28;20502;-60
2023/11/12 01:50:43;;;;;;;21.13;15.90;;;;;;;;;;5053003;28;20414;-60
2023/11/12 01:53:11;;;;;;;23.05;15.65;;;;;;;;;;5053738;28;20406;-60
2023/11/12 01:55:40;;;;;;;18.80;15.38;;;;;;;;;;5052325;28;20064;-60
2023/11/12 01:58:10;;;;;;;21.38;16.58;;;;;;;;;;5052954;28;20060;-61
2023/11/12 02:00:39;;;;;;;21.95;16.90;;;;;;;;;;5054139;28;20380;-60
2023/11/12 02:03:07;;;;;;;21.70;15.85;;;;;;;;;;5053791;28;20486;-61
2023/11/12 02:05:34;;;;;;;21.13;16.73;;;;;;;;;;5053360;28;20501;-61
2023/11/12 02:08:04;;;;;;;21.55;16.98;;;;;;;;;;5053865;28;20490;-61
2023/11/12 02:10:35;;;;;;;21.92;17.48;;;;;;;;;;5053265;28;20116;-60
2023/11/12 02:13:04;;;;;;;20.08;16.58;;;;;;;;;;5053632;28;20056;-60
2023/11/12 02:15:32;;;;;;;18.75;16.23;;;;;;;;;;5053511;28;20075;-60
2023/11/12 02:17:59;;;;;;;19.08;15.70;;;;;;;;;;5053666;28;20064;-60
2023/11/12 02:20:26;;;;;;;18.13;15.18;;;;;;;;;;5052533;28;20060;-60
2023/11/12 02:22:53;;;;;;;23.90;16.25;;;;;;;;;;5053008;28;20053;-61
2023/11/12 02:25:21;;;;;;;17.98;14.65;;;;;;;;;;5053259;28;20056;-61
2023/11/12 02:27:48;;;;;;;16.85;14.13;;;;;;;;;;5053001;28;20057;-61
2023/11/12 02:30:15;;;;;;;20.27;16.13;;;;;;;;;;5053088;28;20044;-61
2023/11/12 02:32:42;;;;;;;16.67;14.70;;;;;;;;;;5052843;28;20056;-61
2023/11/12 02:35:09;;;;;;;19.58;15.38;;;;;;;;;;5052280;28;20053;-61
2023/11/12 02:37:37;;;;;;;17.17;14.45;;;;;;;;;;5053156;28;20059;-61
2023/11/12 02:40:04;;;;;;;18.40;14.57;;;;;;;;;;5053262;28;20053;-61
2023/11/12 02:42:34;;;;;;;18.42;14.90;;;;;;;;;;5052647;28;20056;-61
2023/11/12 02:45:01;;;;;;;16.63;14.95;;;;;;;;;;5052924;28;20060;-61
2023/11/12 02:47:28;;;;;;;17.05;14.15;;;;;;;;;;5052521;28;20060;-62
2023/11/12 02:50:12;;;;;;;17.27;14.32;;;;;;;;;;5051807;28;20437;-61
2023/11/12 02:52:39;;;;;;;15.70;13.93;;;;;;;;;;5045109;28;20478;-60
2023/11/12 02:55:06;;;;;;;16.13;13.10;;;;;;;;;;5052938;28;20053;-60
2023/11/12 02:57:34;;;;;;;15.43;13.52;;;;;;;;;;5052755;28;20064;-61
2023/11/12 03:00:01;;;;;;;15.90;13.65;;;;;;;;;;5053035;28;20482;-60
2023/11/12 03:02:27;;;;;;;17.33;13.40;;;;;;;;;;5052906;28;20533;-60
2023/11/12 03:04:54;;;;;;;17.45;14.18;;;;;;;;;;5052029;28;20053;-60
2023/11/12 03:07:21;;;;;;;15.35;13.20;;;;;;;;;;5052713;28;20056;-60
2023/11/12 03:09:48;;;;;;;15.77;13.35;;;;;;;;;;5052684;28;20398;-60
2023/11/12 03:12:15;;;;;;;16.20;12.68;;;;;;;;;;5052466;28;20062;-61
2023/11/12 03:14:44;;;;;;;16.75;13.30;;;;;;;;;;5052463;28;20060;-61
2023/11/12 03:17:10;;;;;;;13.73;11.77;;;;;;;;;;5051932;28;20056;-61
2023/11/12 03:19:38;;;;;;;14.70;11.75;;;;;;;;;;5051833;28;20053;-60
2023/11/12 03:22:05;;;;;;;14.88;11.30;;;;;;;;;;5052120;28;20053;-60
2023/11/12 03:24:32;;;;;;;13.02;11.38;;;;;;;;;;5052418;28;20048;-60
2023/11/12 03:26:58;;;;;;;13.95;11.25;;;;;;;;;;5052097;28;20044;-61
2023/11/12 03:29:25;;;;;;;12.50;10.90;;;;;;;;;;5052521;28;20482;-61
2023/11/12 03:31:54;;;;;;;12.50;10.75;;;;;;;;;;5052265;28;20053;-61
2023/11/12 03:34:22;;;;;;;11.30;10.10;;;;;;;;;;5051737;28;20048;-60
2023/11/12 03:36:50;;;;;;;12.55;10.73;;;;;;;;;;5052097;28;20060;-60
2023/11/12 03:39:17;;;;;;;12.70;10.73;;;;;;;;;;5051931;28;20497;-60
2023/11/12 03:41:44;;;;;;;11.88;10.68;;;;;;;;;;5052341;28;20144;-60
2023/11/12 03:44:11;;;;;;;14.05;9.90;;;;;;;;;;5052290;28;20414;-60
2023/11/12 03:46:37;;;;;;;12.00;10.70;;;;;;;;;;5053583;28;20064;-60
2023/11/12 03:49:05;;;;;;;13.15;11.13;;;;;;;;;;5055212;28;20167;-60
2023/11/12 03:51:33;;;;;;;12.48;10.85;;;;;;;;;;5056363;28;20064;-60
2023/11/12 03:54:01;;;;;;;12.70;10.55;;;;;;;;;;5056374;28;20061;-60
2023/11/12 03:56:28;;;;;;;12.02;10.07;;;;;;;;;;5056254;28;20049;-61
2023/11/12 03:58:56;;;;;;;15.93;11.23;;;;;;;;;;5056389;28;20060;-60
2023/11/12 04:01:23;;;;;;;13.25;10.90;;;;;;;;;;5056126;28;20053;-60
2023/11/12 04:03:50;;;;;;;10.90;9.55;;;;;;;;;;5055526;28;20065;-60
2023/11/12 04:06:19;;;;;;;13.52;9.88;;;;;;;;;;5055273;28;20057;-61
2023/11/12 04:08:45;;;;;;;11.65;10.40;;;;;;;;;;5056010;28;20060;-60
2023/11/12 04:11:12;;;;;;;12.85;9.75;;;;;;;;;;5056088;28;20060;-61
2023/11/12 04:13:39;;;;;;;13.13;10.98;;;;;;;;;;5055856;28;20049;-61
2023/11/12 04:16:06;;;;;;;11.10;9.95;;;;;;;;;;5055789;28;20485;-61
2023/11/12 04:18:34;;;;;;;13.18;10.15;;;;;;;;;;5055278;28;20056;-60
2023/11/12 04:21:02;;;;;;;14.00;10.68;;;;;;;;;;5055208;28;20064;-60
2023/11/12 04:23:30;;;;;;;11.50;9.65;;;;;;;;;;5055578;28;20049;-61
2023/11/12 04:25:57;;;;;;;12.48;9.45;;;;;;;;;;5055746;28;20056;-61
2023/11/12 04:28:27;;;;;;;10.93;9.07;;;;;;;;;;5055649;28;20064;-60
2023/11/12 04:30:53;;;;;;;13.05;9.45;;;;;;;;;;5055984;28;20057;-61
2023/11/12 04:33:20;;;;;;;11.48;9.73;;;;;;;;;;5055069;28;20053;-60
2023/11/12 04:35:49;;;;;;;11.77;10.30;;;;;;;;;;5055132;28;20052;-61
2023/11/12 04:38:16;;;;;;;10.13;8.90;;;;;;;;;;5055375;28;20062;-60
2023/11/12 04:40:46;;;;;;;11.38;9.23;;;;;;;;;;5055543;28;20048;-60
2023/11/12 04:43:14;;;;;;;14.45;10.02;;;;;;;;;;5055283;28;20056;-61
2023/11/12 04:45:41;;;;;;;12.48;9.25;;;;;;;;;;5055576;28;20076;-60
2023/11/12 04:48:08;;;;;;;10.88;9.00;;;;;;;;;;5054318;28;20411;-60
2023/11/12 04:50:34;;;;;;;10.10;8.98;;;;;;;;;;5055166;28;20061;-61
2023/11/12 04:53:01;;;;;;;11.32;8.98;;;;;;;;;;5054727;28;20053;-61
2023/11/12 04:55:29;;;;;;;11.35;8.30;;;;;;;;;;5055413;28;20053;-60
2023/11/12 04:57:57;;;;;;;11.30;8.98;;;;;;;;;;5054486;28;20063;-61
2023/11/12 05:00:24;;;;;;;10.90;8.70;;;;;;;;;;5054468;28;20063;-60
2023/11/12 05:02:51;;;;;;;9.75;7.80;;;;;;;;;;5053890;28;20064;-61
2023/11/12 05:05:18;;;;;;;10.95;7.53;;;;;;;;;;5054402;28;20044;-61
2023/11/12 05:07:45;;;;;;;10.48;8.05;;;;;;;;;;5054873;28;20506;-61
2023/11/12 05:10:12;;;;;;;11.45;7.75;;;;;;;;;;5054544;28;20394;-61
2023/11/12 05:12:39;;;;;;;8.80;7.82;;;;;;;;;;5054182;28;20505;-61
2023/11/12 05:15:08;;;;;;;8.57;7.57;;;;;;;;;;5054515;28;20060;-61
2023/11/12 05:17:35;;;;;;;8.70;6.82;;;;;;;;;;5054117;28;20060;-61
2023/11/12 05:20:03;;;;;;;9.48;7.75;;;;;;;;;;5053689;28;20049;-61
2023/11/12 05:22:30;;;;;;;10.18;7.45;;;;;;;;;;5054348;28;20060;-60
2023/11/12 05:24:57;;;;;;;9.80;7.07;;;;;;;;;;5054581;28;20406;-61
2023/11/12 05:27:24;;;;;;;8.25;7.43;;;;;;;;;;5054160;28;20049;-61
2023/11/12 05:29:52;;;;;;;10.07;7.45;;;;;;;;;;5054667;28;20370;-61
2023/11/12 05:32:20;;;;;;;9.80;7.55;;;;;;;;;;5054539;28;20059;-61
2023/11/12 05:34:47;;;;;;;9.45;7.43;;;;;;;;;;5053525;28;20060;-62
2023/11/12 05:37:13;;;;;;;7.65;6.80;;;;;;;;;;5054135;28;20085;-61
2023/11/12 05:39:40;;;;;;;9.38;7.18;;;;;;;;;;5054172;28;20057;-61
2023/11/12 05:42:07;;;;;;;10.25;7.03;;;;;;;;;;5054028;28;20060;-61
2023/11/12 05:44:34;;;;;;;8.23;7.30;;;;;;;;;;5053888;28;20052;-61
2023/11/12 05:47:01;;;;;;;7.35;6.65;;;;;;;;;;5053366;28;20060;-60
2023/11/12 05:49:29;;;;;;;9.70;7.20;;;;;;;;;;5053296;28;20079;-61
2023/11/12 05:51:56;;;;;;;8.77;7.05;;;;;;;;;;5053599;28;20060;-61
2023/11/12 05:54:23;;;;;;;7.07;6.25;;;;;;;;;;5053771;28;20060;-61
2023/11/12 05:56:50;;;;;;;7.07;6.30;;;;;;;;;;5053557;28;20052;-60
2023/11/12 05:59:16;;;;;;;8.60;6.88;;;;;;;;;;5053435;28;20053;-61
2023/11/12 06:01:43;;;;;;;7.57;6.43;;;;;;;;;;5053500;28;20144;-61
2023/11/12 06:04:10;;;;;;;8.93;6.53;;;;;;;;;;5053013;28;20060;-61
2023/11/12 06:06:39;;;;;;;6.70;5.97;;;;;;;;;;5053950;28;20064;-61
2023/11/12 06:09:07;;;;;;;6.53;5.78;;;;;;;;;;5053193;28;20056;-61
2023/11/12 06:11:36;;;;;;;7.78;6.13;;;;;;;;;;5053914;28;20500;-61
2023/11/12 06:14:03;;;;;;;5.90;5.22;;;;;;;;;;5053997;28;20048;-60
2023/11/12 06:16:29;;;;;;;6.30;5.70;;;;;;;;;;5053408;28;20106;-60
2023/11/12 06:18:58;;;;;;;8.35;6.75;;;;;;;;;;5052644;28;20056;-61
2023/11/12 06:21:24;;;;;;;7.97;5.70;;;;;;;;;;5053341;28;20053;-60
2023/11/12 06:23:53;;;;;;;6.72;5.43;;;;;;;;;;5053510;28;20463;-62
2023/11/12 06:26:20;;;;;;;8.32;5.88;;;;;;;;;;5053617;28;20391;-61
2023/11/12 06:28:48;;;;;;;7.07;5.72;;;;;;;;;;5053107;28;20056;-61
2023/11/12 06:31:15;;;;;;;6.82;5.53;;;;;;;;;;5053556;28;20056;-61
2023/11/12 06:33:43;;;;;;;6.30;5.28;;;;;;;;;;5052760;28;20474;-61
2023/11/12 06:36:13;;;;;;;6.38;5.70;;;;;;;;;;5052656;28;20059;-61
2023/11/12 06:38:40;;;;;;;7.35;5.60;;;;;;;;;;5052907;28;20060;-61
2023/11/12 06:41:08;;;;;;;10.48;6.70;;;;;;;;;;5052938;28;20069;-61
2023/11/12 06:43:35;;;;;;;8.98;6.72;;;;;;;;;;5052938;28;20398;-61
2023/11/12 06:46:02;;;;;;;6.80;6.10;;;;;;;;;;5052955;28;20049;-61
2023/11/12 06:48:28;;;;;;;6.20;5.60;;;;;;;;;;5051640;28;20045;-61
2023/11/12 06:50:55;;;;;;;6.63;5.65;;;;;;;;;;5052557;28;20057;-62
2023/11/12 06:53:22;;;;;;;8.02;5.80;;;;;;;;;;5053168;28;20055;-61
2023/11/12 06:55:49;;;;;;;6.90;5.53;;;;;;;;;;5052987;28;20049;-62
2023/11/12 06:58:17;;;;;;;7.05;5.20;;;;;;;;;;5052499;28;20057;-61
2023/11/12 07:00:45;;;;;;;7.63;6.03;;;;;;;;;;5051747;28;20044;-62
2023/11/12 07:03:11;;;;;;;9.48;4.72;;;;;;;;;;5052531;28;20053;-62
2023/11/12 07:05:38;;;;;;;6.72;5.15;;;;;;;;;;5052061;28;20044;-61
2023/11/12 07:08:05;;;;;;;6.55;4.97;;;;;;;;;;5052996;28;20493;-61
2023/11/12 07:10:32;;;;;;;6.75;4.75;;;;;;;;;;5052573;28;20402;-61
2023/11/12 07:12:59;;;;;;;7.63;5.18;;;;;;;;;;5052476;28;20053;-61
2023/11/12 07:15:27;;;;;;;5.35;4.85;;;;;;;;;;5051827;28;20049;-60
2023/11/12 07:17:54;;;;;;;7.65;5.35;;;;;;;;;;5051517;28;20486;-61
2023/11/12 07:20:21;;;;;;;8.40;5.20;;;;;;;;;;5051261;28;20063;-60
2023/11/12 07:22:49;;;;;;;5.70;4.70;;;;;;;;;;5051721;28;20422;-61
2023/11/12 07:25:16;;;;;;;8.13;5.32;;;;;;;;;;5052427;28;20140;-61
2023/11/12 07:27:44;;;;;;;5.75;4.45;;;;;;;;;;5040296;28;20364;-61
2023/11/12 07:30:11;;;;;;;5.70;4.20;;;;;;;;;;5033119;28;20518;-61
2023/11/12 07:32:39;;;;;;;5.20;4.22;;;;;;;;;;5051564;28;20048;-62
2023/11/12 07:35:08;;;;;;;5.95;4.20;;;;;;;;;;5050694;28;20052;-61
2023/11/12 07:37:35;;;;;;;4.47;4.00;;;;;;;;;;5051372;28;20052;-61
2023/11/12 07:40:04;;;;;;;4.90;4.40;;;;;;;;;;5052374;28;20156;-61
2023/11/12 07:42:31;;;;;;;6.35;4.03;;;;;;;;;;5052266;28;20065;-61
2023/11/12 07:44:58;;;;;;;5.50;3.85;;;;;;;;;;5052030;28;20064;-61
2023/11/12 07:47:25;;;;;;;4.90;4.10;;;;;;;;;;5051839;28;20072;-61
2023/11/12 07:49:53;;;;;;;5.85;4.28;;;;;;;;;;5048878;28;20060;-61
2023/11/12 07:52:20;;;;;;;6.25;4.63;;;;;;;;;;5050832;28;20057;-61
2023/11/12 07:54:47;;;;;;;5.47;3.97;;;;;;;;;;5050243;28;20052;-61
2023/11/12 07:57:14;;;;;;;5.05;4.20;;;;;;;;;;5044466;28;20068;-61
2023/11/12 07:59:41;;;;;;;4.78;3.42;;;;;;;;;;5051193;28;20076;-61
2023/11/12 08:02:08;;;;;;;4.00;3.25;;;;;;;;;;5051376;28;20071;-61
2023/11/12 08:04:36;;;;;;;3.58;2.95;;;;;;;;;;5051198;28;20049;-62
2023/11/12 08:07:04;;;;;;;4.60;2.80;;;;;;;;;;5051002;28;20049;-62
2023/11/12 08:09:31;;;;;;;3.67;2.60;;;;;;;;;;5039997;28;20045;-63
2023/11/12 08:11:58;;;;;;;3.78;2.55;;;;;;;;;;5051966;28;20061;-62
2023/11/12 08:14:26;;;;;;;5.53;2.40;;;;;;;;;;5051519;28;20053;-62
2023/11/12 08:16:52;;;;;;;4.53;2.70;;;;;;;;;;5050986;28;20056;-62
2023/11/12 08:19:19;;;;;;;3.47;2.70;;;;;;;;;;5051498;28;20049;-62
2023/11/12 08:21:46;;;;;;;3.67;2.53;;;;;;;;;;5052121;28;20060;-63
2023/11/12 08:24:14;;;;;;;3.22;2.45;;;;;;;;;;5051527;28;20052;-61
2023/11/12 08:26:41;;;;;;;3.78;2.40;;;;;;;;;;5051316;28;20481;-60
2023/11/12 08:29:08;;;;;;;3.85;2.92;;;;;;;;;;5051384;28;20069;-60
2023/11/12 08:31:36;;;;;;;3.88;2.40;;;;;;;;;;5049525;28;20049;-60
2023/11/12 08:34:02;;;;;;;4.32;2.40;;;;;;;;;;5054285;28;20445;-60
2023/11/12 08:36:29;;;;;;;3.13;2.47;;;;;;;;;;5053949;28;20048;-60
2023/11/12 08:38:56;;;;;;;5.35;2.97;;;;;;;;;;5041039;28;20049;-60
2023/11/12 08:41:24;;;;;;;3.50;2.58;;;;;;;;;;5044882;28;20049;-60
2023/11/12 08:43:51;;;;;;;3.33;2.58;;;;;;;;;;5054190;28;20048;-60
2023/11/12 08:46:19;;;;;;;5.65;2.83;;;;;;;;;;5049686;28;20053;-61
2023/11/12 08:48:46;;;;;;;3.40;3.08;;;;;;;;;;5038666;28;20066;-61
2023/11/12 08:51:13;;;;;;;4.03;2.90;;;;;;;;;;5052772;28;20057;-60
2023/11/12 08:53:40;;;;;;;4.90;3.63;;;;;;;;;;5052409;28;20060;-60
2023/11/12 08:56:07;;;;;;;4.60;3.17;;;;;;;;;;5053350;28;20049;-60
2023/11/12 08:58:36;;;;;;;4.22;2.50;;;;;;;;;;5054431;28;20053;-60
2023/11/12 09:01:08;;;;;;;3.40;3.00;;;;;;;;;;5054880;28;20049;-60
2023/11/12 09:03:35;;;;;;;4.07;3.15;;;;;;;;;;5052158;28;20060;-60
2023/11/12 09:06:02;;;;;;;5.45;3.15;;;;;;;;;;5052772;28;20425;-61
2023/11/12 09:08:29;;;;;;;5.03;3.17;;;;;;;;;;5048073;28;20071;-60
2023/11/12 09:10:56;;;;;;;4.60;3.05;;;;;;;;;;5053433;28;20049;-61
2023/11/12 09:13:22;;;;;;;4.82;3.25;;;;;;;;;;5046538;28;20065;-61
2023/11/12 09:15:51;;;;;;;5.10;3.35;;;;;;;;;;5040499;28;20052;-61
2023/11/12 09:18:19;;;;;;;4.43;3.00;;;;;;;;;;5047926;28;20049;-61
2023/11/12 09:20:46;;;;;;;6.43;3.70;;;;;;;;;;5048048;28;20049;-61
2023/11/12 09:23:13;;;;;;;5.30;3.20;;;;;;;;;;5038511;28;20065;-61
2023/11/12 09:25:40;;;;;;;4.97;2.90;;;;;;;;;;5047311;28;20064;-61
2023/11/12 09:28:07;;;;;;;4.50;2.70;;;;;;;;;;5041609;28;20050;-61
2023/11/12 09:30:34;;;;;;;4.05;2.50;;;;;;;;;;5045246;28;20053;-60
2023/11/12 09:33:04;;;;;;;4.95;2.90;;;;;;;;;;5053183;28;20061;-61
2023/11/12 09:35:31;;;;;;;5.45;3.00;;;;;;;;;;5051269;28;20068;-61
2023/11/12 09:37:58;;;;;;;3.60;2.40;;;;;;;;;;5053161;28;20052;-61
2023/11/12 09:40:29;;;;;;;4.05;2.60;;;;;;;;;;5044107;28;20053;-61
2023/11/12 09:42:56;;;;;;;2.90;2.22;;;;;;;;;;5042685;28;20053;-62
2023/11/12 09:45:24;;;;;;;3.10;2.30;;;;;;;;;;5040246;28;20052;-62
2023/11/12 09:47:58;;;;;;;3.35;2.22;;;;;;;;;;5046221;28;20521;-62
2023/11/12 09:50:27;;;;;;;5.70;2.70;;;;;;;;;;5045485;28;20071;-62
2023/11/12 09:52:54;;;;;;;3.38;2.13;;;;;;;;;;5041933;28;20049;-61
2023/11/12 09:55:22;;;;;;;3.55;2.03;;;;;;;;;;5039970;28;20056;-61
2023/11/12 09:57:51;;;;;;;2.97;2.03;;;;;;;;;;5043397;28;20060;-61
2023/11/12 10:00:18;;;;;;;3.17;2.20;;;;;;;;;;5043724;28;20049;-61
2023/11/12 10:02:45;;;;;;;3.05;2.15;;;;;;;;;;5050878;28;20056;-62
2023/11/12 10:05:13;;;;;;;5.30;2.35;;;;;;;;;;5041731;28;20058;-62
2023/11/12 10:07:41;;;;;;;3.08;2.17;;;;;;;;;;5034830;28;20057;-62
2023/11/12 10:10:21;;;;;;;4.25;2.00;;;;;;;;;;5048197;28;20060;-62
2023/11/12 10:12:48;;;;;;;4.65;1.98;;;;;;;;;;5038705;28;20076;-61
2023/11/12 10:15:15;;;;;;;2.80;1.95;;;;;;;;;;5035975;28;20054;-60
2023/11/12 10:17:45;;;;;;;4.03;1.77;;;;;;;;;;5043711;28;20053;-61
2023/11/12 10:20:19;;;;;;;3.97;1.77;;;;;;;;;;5035402;28;20517;-60
2023/11/12 10:22:47;;;;;;;5.18;1.95;;;;;;;;;;5047286;28;20075;-61
2023/11/12 10:25:14;;;;;;;3.78;2.22;;;;;;;;;;5043398;28;20509;-61
2023/11/12 10:27:53;;;;;;;2.70;2.08;;;;;;;;;;5045767;28;20056;-61
2023/11/12 10:30:21;;;;;;;3.47;2.00;;;;;;;;;;5036664;28;20056;-62
2023/11/12 10:32:48;;;;;;;3.88;2.03;;;;;;;;;;5040043;28;20045;-61
2023/11/12 10:35:24;;;;;;;3.28;1.80;;;;;;;;;;5052001;28;20485;-61
2023/11/12 10:37:56;;;;;;;3.45;1.88;;;;;;;;;;5048791;28;20053;-61
2023/11/12 10:40:24;;;;;;;2.70;1.63;;;;;;;;;;5040770;28;20061;-60
2023/11/12 10:42:58;;;;;;;3.88;1.80;;;;;;;;;;5037600;28;20054;-61
2023/11/12 10:45:25;;;;;;;3.55;1.77;;;;;;;;;;5048134;28;20056;-60
2023/11/12 10:47:53;;;;;;;3.63;2.10;;;;;;;;;;5043573;28;20057;-61
2023/11/12 10:50:21;;;;;;;3.08;1.92;;;;;;;;;;5051239;28;20057;-62
2023/11/12 10:52:48;;;;;;;3.28;1.92;;;;;;;;;;5050938;28;20394;-62
2023/11/12 10:55:16;;;;;;;3.08;2.13;;;;;;;;;;5043041;28;20049;-60
2023/11/12 10:57:44;;;;;;;4.22;2.10;;;;;;;;;;5031074;28;20482;-61
2023/11/12 11:00:11;;;;;;;4.25;1.95;;;;;;;;;;5032626;28;20061;-61
2023/11/12 11:02:38;;;;;;;3.15;1.80;;;;;;;;;;5032556;28;20060;-61
2023/11/12 11:05:05;;;;;;;3.10;1.90;;;;;;;;;;5031120;28;20057;-61
2023/11/12 11:07:37;;;;;;;2.95;1.33;;;;;;;;;;5032839;28;20053;-61
2023/11/12 11:10:05;;;;;;;3.15;1.90;;;;;;;;;;5045606;28;20064;-60
2023/11/12 11:12:34;;;;;;;3.80;1.67;;;;;;;;;;5052411;28;20059;-60
2023/11/12 11:15:15;;;;;;;2.97;1.98;;;;;;;;;;5052749;28;20410;-61
2023/11/12 11:17:42;;;;;;;2.67;1.70;;;;;;;;;;5051383;28;20060;-61
2023/11/12 11:20:11;;;;;;;2.78;1.70;;;;;;;;;;5052454;28;20053;-61
2023/11/12 11:22:38;;;;;;;3.22;1.80;;;;;;;;;;5052405;28;20061;-60
2023/11/12 11:25:20;;;;;;;3.58;1.67;;;;;;;;;;5051803;28;20052;-60
2023/11/12 11:27:50;;;;;;;2.80;1.75;;;;;;;;;;5052172;28;20056;-62
2023/11/12 11:30:17;;;;;;;4.40;1.73;;;;;;;;;;5051766;28;20049;-62
2023/11/12 11:32:57;;;;;;;3.08;1.77;;;;;;;;;;5051755;28;20049;-62
2023/11/12 11:35:26;;;;;;;2.72;1.60;;;;;;;;;;5051882;28;20053;-62
2023/11/12 11:38:07;;;;;;;2.72;1.73;;;;;;;;;;5051678;28;20060;-63
2023/11/12 11:40:34;;;;;;;3.28;1.30;;;;;;;;;;5052021;28;20045;-63
2023/11/12 11:43:20;;;;;;;3.30;1.50;;;;;;;;;;5051727;28;20507;-62
2023/11/12 11:46:08;;;;;;;3.72;1.40;;;;;;;;;;5051867;28;20490;-62
2023/11/12 11:48:36;;;;;;;2.53;1.40;;;;;;;;;;5048270;28;20056;-62
2023/11/12 11:51:18;;;;;;;3.63;1.40;;;;;;;;;;5051375;28;20061;-62
2023/11/12 11:53:44;;;;;;;2.60;1.30;;;;;;;;;;5051779;28;20053;-62
2023/11/12 11:56:14;;;;;;;3.00;1.55;;;;;;;;;;5051940;28;20413;-62
2023/11/12 11:58:45;;;;;;;2.78;1.42;;;;;;;;;;5051624;28;20068;-63
2023/11/12 12:01:12;;;;;;;3.42;1.70;;;;;;;;;;5051896;28;20418;-61
2023/11/12 12:03:42;;;;;;;2.70;1.10;;;;;;;;;;5051915;28;20459;-61
2023/11/12 12:06:18;;;;;;;3.35;1.40;;;;;;;;;;5051406;28;20053;-61
2023/11/12 12:08:51;;;;;;;3.13;1.48;;;;;;;;;;5055035;28;20056;-61
2023/11/12 12:11:18;;;;;;;2.22;1.30;;;;;;;;;;5055212;28;20055;-62
2023/11/12 12:13:55;;;;;;;2.72;1.40;;;;;;;;;;5055645;28;20067;-62
2023/11/12 12:16:25;;;;;;;2.60;1.50;;;;;;;;;;5055562;28;20061;-62
2023/11/12 12:18:54;;;;;;;3.25;1.50;;;;;;;;;;5055666;28;20061;-62
2023/11/12 12:21:21;;;;;;;3.17;1.48;;;;;;;;;;5055776;28;20056;-62
2023/11/12 12:23:48;;;;;;;2.72;1.40;;;;;;;;;;5055382;28;20064;-62
2023/11/12 12:26:15;;;;;;;2.75;1.63;;;;;;;;;;5055428;28;20049;-62
2023/11/12 12:28:42;;;;;;;3.85;2.00;;;;;;;;;;5055321;28;20053;-62
2023/11/12 12:31:09;;;;;;;4.78;1.77;;;;;;;;;;5055401;28;20053;-62
2023/11/12 12:33:37;;;;;;;3.25;1.70;;;;;;;;;;5055197;28;20048;-62
2023/11/12 12:36:13;;;;;;;3.28;1.90;;;;;;;;;;5054986;28;20055;-61
2023/11/12 12:38:54;;;;;;;4.05;2.00;;;;;;;;;;5055185;28;20049;-61
2023/11/12 12:41:21;;;;;;;3.63;2.20;;;;;;;;;;5055167;28;20053;-62
2023/11/12 12:43:50;;;;;;;3.40;2.05;;;;;;;;;;5054823;28;20505;-61
2023/11/12 12:46:16;;;;;;;3.30;1.88;;;;;;;;;;5054580;28;20045;-62
2023/11/12 12:48:50;;;;;;;3.28;1.90;;;;;;;;;;5054560;28;20418;-62
2023/11/12 12:51:18;;;;;;;3.42;1.80;;;;;;;;;;5054847;28;20053;-62
2023/11/12 12:53:46;;;;;;;3.38;1.98;;;;;;;;;;5055154;28;20045;-62
2023/11/12 12:56:13;;;;;;;3.78;1.83;;;;;;;;;;5054790;28;20060;-62
2023/11/12 12:58:40;;;;;;;3.40;2.20;;;;;;;;;;5054924;28;20053;-62
2023/11/12 13:01:10;;;;;;;4.63;2.05;;;;;;;;;;5054838;28;20471;-62
2023/11/12 13:03:39;;;;;;;2.40;1.60;;;;;;;;;;5054924;28;20049;-61
2023/11/12 13:06:08;;;;;;;2.55;1.73;;;;;;;;;;5054928;28;20053;-62
2023/11/12 13:08:36;;;;;;;3.20;2.10;;;;;;;;;;5054751;28;20060;-62
2023/11/12 13:11:03;;;;;;;3.47;2.00;;;;;;;;;;5054790;28;20504;-61
2023/11/12 13:13:30;;;;;;;4.38;2.10;;;;;;;;;;5054706;28;20478;-61
2023/11/12 13:15:57;;;;;;;4.15;2.38;;;;;;;;;;5054341;28;20057;-61
2023/11/12 13:18:25;;;;;;;4.68;1.98;;;;;;;;;;5054509;28;20052;-61
2023/11/12 13:20:52;;;;;;;4.00;2.05;;;;;;;;;;5054766;28;20418;-61
2023/11/12 13:23:19;;;;;;;2.40;1.95;;;;;;;;;;5054638;28;20431;-61
2023/11/12 13:25:48;;;;;;;3.95;2.00;;;;;;;;;;5054642;28;20053;-61
2023/11/12 13:28:16;;;;;;;3.92;2.22;;;;;;;;;;5054591;28;20049;-61
2023/11/12 13:30:43;;;;;;;4.72;2.25;;;;;;;;;;5054052;28;20079;-60
2023/11/12 13:33:10;;;;;;;4.43;2.40;;;;;;;;;;5054373;28;20048;-61
2023/11/12 13:35:38;;;;;;;4.03;2.30;;;;;;;;;;5053696;28;20057;-61
2023/11/12 13:38:05;;;;;;;3.58;2.03;;;;;;;;;;5054457;28;20128;-60
2023/11/12 13:40:33;;;;;;;3.45;2.35;;;;;;;;;;5054557;28;20053;-60
2023/11/12 13:43:01;;;;;;;2.95;1.80;;;;;;;;;;5054579;28;20067;-61
2023/11/12 13:45:28;;;;;;;3.83;2.10;;;;;;;;;;5054163;28;20478;-60
2023/11/12 13:47:55;;;;;;;4.25;2.30;;;;;;;;;;5053960;28;20375;-60
2023/11/12 13:50:24;;;;;;;6.15;2.55;;;;;;;;;;5053550;28;20044;-60
2023/11/12 13:52:52;;;;;;;5.10;2.28;;;;;;;;;;5053841;28;20418;-61
2023/11/12 13:55:19;;;;;;;3.13;2.10;;;;;;;;;;5053981;28;20060;-60
2023/11/12 13:57:47;;;;;;;4.40;2.08;;;;;;;;;;5054194;28;20056;-60
2023/11/12 14:00:17;;;;;;;4.50;1.95;;;;;;;;;;5053795;28;20422;-59
2023/11/12 14:02:44;;;;;;;4.32;1.90;;;;;;;;;;5054006;28;20064;-60
2023/11/12 14:05:11;;;;;;;3.42;1.80;;;;;;;;;;5053894;28;20414;-60
2023/11/12 14:07:39;;;;;;;4.78;2.28;;;;;;;;;;5054039;28;20076;-60
2023/11/12 14:10:09;;;;;;;3.25;1.83;;;;;;;;;;5053469;28;20052;-60
2023/11/12 14:12:37;;;;;;;;;;;;;;;;;;5054390;28;20052;-60
2023/11/12 14:15:05;;;;;;;4.75;2.10;;;;;;;;;;5053208;28;19920;-60
2023/11/12 14:17:34;;;;;;;5.47;2.47;;;;;;;;;;5052896;28;20060;-61
2023/11/12 14:20:05;;;;;;;4.30;2.53;;;;;;;;;;5053492;28;20131;-60
2023/11/12 14:22:33;;;;;;;5.35;2.28;;;;;;;;;;5053708;28;20064;-61
2023/11/12 14:25:00;;;;;;;4.18;2.10;;;;;;;;;;5053236;28;20056;-61
2023/11/12 14:27:27;;;;;;;5.43;2.50;;;;;;;;;;5053175;28;20056;-61
2023/11/12 14:29:54;;;;;;;3.22;1.90;;;;;;;;;;5052763;28;20053;-61
2023/11/12 14:32:21;;;;;;;4.35;1.90;;;;;;;;;;5053007;28;20056;-60
2023/11/12 14:34:49;;;;;;;4.03;2.20;;;;;;;;;;5052837;28;20049;-60
2023/11/12 14:37:16;;;;;;;4.50;2.60;;;;;;;;;;5053071;28;20056;-60
2023/11/12 14:39:43;;;;;;;3.78;2.33;;;;;;;;;;5053340;28;20512;-60